Skaelskor, Denmark
Current Conditions -  °F | °C
As of 7:20 AM on Wednesday 26 Nov 2014 (Local Time) from EKAV Reporting Station
Broken Clouds Broken Clouds  
Wind Chill:   Ceiling: 2200
Heat Index:   Visibility: 6mi
Dew Point:   Wind: 3mph
Humidity: 71%   Direction: 150°SSE
Pressure: 30.27"   Gusts: NA
Location:  55.25°N, 11.29°E
Report Text: EKAV 260620Z AUTO 15003KT 9999NDV BKN022/// 09/04 Q1025
Loading
Personal Weather Stations






























Interactive Weather Map New forecast layout! Learn more

10-Day Weather Forecast

Advertisements
Track Severe Weather on mobile